createdAt,value
2023-05-17T00:02:08.479Z,55.07
2023-05-17T00:04:35.700Z,55.62
2023-05-17T00:07:03.124Z,54.02
2023-05-17T00:09:30.364Z,54.61
2023-05-17T00:11:57.455Z,55.69
2023-05-17T00:14:25.014Z,56.82
2023-05-17T00:16:52.715Z,56.14
2023-05-17T00:19:20.006Z,56.58
2023-05-17T00:21:47.600Z,56.36
2023-05-17T00:24:14.750Z,55.54
2023-05-17T00:26:41.826Z,55.70
2023-05-17T00:29:09.012Z,56.49
2023-05-17T00:31:36.101Z,55.82
2023-05-17T00:34:03.242Z,56.26
2023-05-17T00:36:30.892Z,54.86
2023-05-17T00:38:57.979Z,56.88
2023-05-17T00:41:25.146Z,57.40
2023-05-17T00:43:52.308Z,56.07
2023-05-17T00:46:19.377Z,55.01
2023-05-17T00:48:46.598Z,54.04
2023-05-17T00:51:16.181Z,56.59
2023-05-17T00:53:43.413Z,55.35
2023-05-17T00:56:10.668Z,57.31
2023-05-17T00:58:38.390Z,56.13
2023-05-17T01:01:05.690Z,57.32
2023-05-17T01:03:33.115Z,56.21
2023-05-17T01:06:00.379Z,58.90
2023-05-17T01:08:27.489Z,57.62
2023-05-17T01:11:12.189Z,57.49
2023-05-17T01:14:06.582Z,59.85
2023-05-17T01:16:44.295Z,57.94
2023-05-17T01:19:50.068Z,58.75
2023-05-17T01:23:03.332Z,58.61
2023-05-17T01:26:16.373Z,58.05
2023-05-17T01:28:52.562Z,57.35
2023-05-17T01:31:20.680Z,59.75
2023-05-17T01:33:48.182Z,60.92
2023-05-17T01:36:15.455Z,59.46
2023-05-17T01:38:42.490Z,60.64
2023-05-17T01:41:40.258Z,59.66
2023-05-17T01:44:30.796Z,61.77
2023-05-17T01:47:28.067Z,59.05
2023-05-17T01:49:59.088Z,59.98
2023-05-17T01:53:11.802Z,58.75
2023-05-17T01:55:50.654Z,59.29
2023-05-17T01:58:21.784Z,59.78
2023-05-17T02:00:52.384Z,59.54
2023-05-17T02:03:20.683Z,62.71
2023-05-17T02:05:48.000Z,60.92
2023-05-17T02:08:15.116Z,63.80
2023-05-17T02:10:45.211Z,63.09
2023-05-17T02:13:12.892Z,60.96
2023-05-17T02:15:40.026Z,61.15
2023-05-17T02:18:07.359Z,59.74
2023-05-17T02:20:34.536Z,60.60
2023-05-17T02:23:01.670Z,59.55
2023-05-17T02:25:28.940Z,63.70
2023-05-17T02:27:56.413Z,62.50
2023-05-17T02:30:24.738Z,61.38
2023-05-17T02:32:52.314Z,61.92
2023-05-17T02:35:19.651Z,61.40
2023-05-17T02:37:48.974Z,60.46
2023-05-17T02:40:16.082Z,62.29
2023-05-17T02:42:46.576Z,59.89
2023-05-17T02:45:13.660Z,60.54
2023-05-17T02:47:41.488Z,61.43
2023-05-17T02:50:09.610Z,62.30
2023-05-17T02:52:36.737Z,61.39
2023-05-17T02:55:04.940Z,61.90
2023-05-17T02:57:32.024Z,60.54
2023-05-17T02:59:59.176Z,61.00
2023-05-17T03:02:28.009Z,60.99
2023-05-17T03:04:55.291Z,60.25
2023-05-17T03:07:22.449Z,61.48
2023-05-17T03:09:49.555Z,63.72
2023-05-17T03:12:16.692Z,63.52
2023-05-17T03:14:43.841Z,60.98
2023-05-17T03:17:11.949Z,61.59
2023-05-17T03:19:39.121Z,60.04
2023-05-17T03:22:06.354Z,60.50
2023-05-17T03:24:33.507Z,60.53
2023-05-17T03:27:00.854Z,61.52
2023-05-17T03:29:27.987Z,62.82
2023-05-17T03:31:55.080Z,61.37
2023-05-17T03:34:22.239Z,60.09
2023-05-17T03:36:49.357Z,60.47
2023-05-17T03:39:16.407Z,61.73
2023-05-17T03:41:43.559Z,61.01
2023-05-17T03:44:10.767Z,60.35
2023-05-17T03:46:37.926Z,60.56
2023-05-17T03:49:05.129Z,59.62
2023-05-17T03:51:32.392Z,64.06
2023-05-17T03:54:03.597Z,62.46
2023-05-17T03:56:31.711Z,61.59
2023-05-17T03:59:02.098Z,60.41
2023-05-17T04:01:29.233Z,62.35
2023-05-17T04:03:56.510Z,60.32
2023-05-17T04:06:24.489Z,59.44
2023-05-17T04:08:51.688Z,58.72
2023-05-17T04:11:25.669Z,59.37
2023-05-17T04:13:53.577Z,59.63
2023-05-17T04:16:21.217Z,57.74
2023-05-17T04:18:52.591Z,57.49
2023-05-17T04:21:20.092Z,57.98
2023-05-17T04:23:50.268Z,60.99
2023-05-17T04:26:17.566Z,62.06
2023-05-17T04:28:44.757Z,60.88
2023-05-17T04:31:17.887Z,60.42
2023-05-17T04:33:45.300Z,60.97
2023-05-17T04:36:12.438Z,61.32
2023-05-17T04:38:42.382Z,60.47
2023-05-17T04:41:09.637Z,59.94
2023-05-17T04:43:38.254Z,60.77
2023-05-17T04:46:05.926Z,61.58
2023-05-17T04:48:33.595Z,59.10
2023-05-17T04:51:05.138Z,60.65
2023-05-17T04:53:32.503Z,57.11
2023-05-17T04:55:59.710Z,59.33
2023-05-17T04:58:26.970Z,58.42
2023-05-17T05:00:54.186Z,57.23
2023-05-17T05:03:23.049Z,56.97
2023-05-17T05:05:50.987Z,55.59
2023-05-17T05:08:18.155Z,54.37
2023-05-17T05:10:46.073Z,55.41
2023-05-17T05:13:13.200Z,55.40
2023-05-17T05:15:40.432Z,55.31
2023-05-17T05:18:07.657Z,52.78
2023-05-17T05:20:34.918Z,54.33
2023-05-17T05:23:03.898Z,55.64
2023-05-17T05:25:34.229Z,54.81
2023-05-17T05:28:01.452Z,53.14
2023-05-17T05:30:28.633Z,54.97
2023-05-17T05:32:56.006Z,52.20
2023-05-17T05:35:29.247Z,53.91
2023-05-17T05:38:00.137Z,53.16
2023-05-17T05:40:29.748Z,54.83
2023-05-17T05:42:59.368Z,53.71
2023-05-17T05:45:26.513Z,53.21
2023-05-17T05:47:53.790Z,51.68
2023-05-17T05:50:21.161Z,49.66
2023-05-17T05:52:48.270Z,50.41
2023-05-17T05:55:15.426Z,49.96
2023-05-17T05:57:42.564Z,51.09
2023-05-17T06:00:18.480Z,49.96
2023-05-17T06:02:45.680Z,49.61
2023-05-17T06:05:15.115Z,51.39
2023-05-17T06:07:42.316Z,48.95
2023-05-17T06:10:10.381Z,51.75
2023-05-17T06:12:42.072Z,50.53
2023-05-17T06:15:10.163Z,50.64
2023-05-17T06:17:37.414Z,50.26
2023-05-17T06:20:05.340Z,51.82
2023-05-17T06:22:32.488Z,50.63
2023-05-17T06:24:59.764Z,50.16
2023-05-17T06:27:27.215Z,52.26
2023-05-17T06:29:54.376Z,50.95
2023-05-17T06:32:21.724Z,52.51
2023-05-17T06:34:51.176Z,53.10
2023-05-17T06:37:18.386Z,51.57
2023-05-17T06:39:55.947Z,50.25
2023-05-17T06:42:27.084Z,50.17
2023-05-17T06:44:54.487Z,50.60
2023-05-17T06:47:21.680Z,48.53
2023-05-17T06:49:50.208Z,49.82
2023-05-17T06:52:18.271Z,48.85
2023-05-17T06:54:45.457Z,48.59
2023-05-17T06:57:15.043Z,49.67
2023-05-17T06:59:42.140Z,48.57
2023-05-17T07:02:09.405Z,47.12
2023-05-17T07:04:37.124Z,47.40
2023-05-17T07:07:04.346Z,46.11
2023-05-17T07:09:31.550Z,44.20
2023-05-17T07:11:58.904Z,45.52
2023-05-17T07:14:26.068Z,44.65
2023-05-17T07:16:53.249Z,45.32
2023-05-17T07:19:29.993Z,46.13
2023-05-17T07:21:57.363Z,45.56
2023-05-17T07:24:24.586Z,46.33
2023-05-17T07:26:52.648Z,46.25
2023-05-17T07:29:20.025Z,46.19
2023-05-17T07:31:47.136Z,45.09
2023-05-17T07:34:14.550Z,44.80
2023-05-17T07:36:42.361Z,44.33
2023-05-17T07:39:09.995Z,42.88
2023-05-17T07:41:37.352Z,43.99
2023-05-17T07:44:06.078Z,43.80
2023-05-17T07:46:33.265Z,43.15
2023-05-17T07:49:00.523Z,42.13
2023-05-17T07:51:27.750Z,44.30
2023-05-17T07:53:58.100Z,42.54
2023-05-17T07:56:25.640Z,43.94
2023-05-17T07:58:52.914Z,44.31
2023-05-17T08:01:20.245Z,41.76
2023-05-17T08:03:50.218Z,40.86
2023-05-17T08:06:21.792Z,39.72
2023-05-17T08:08:48.938Z,40.35
2023-05-17T08:11:17.833Z,40.04
2023-05-17T08:13:45.539Z,40.20
2023-05-17T08:16:15.826Z,41.36
2023-05-17T08:18:43.912Z,41.29
2023-05-17T08:21:11.816Z,40.78
2023-05-17T08:23:41.718Z,39.91
2023-05-17T08:26:09.233Z,40.80
2023-05-17T08:28:37.094Z,38.72
2023-05-17T08:31:04.952Z,40.72
2023-05-17T08:33:34.425Z,41.12
2023-05-17T08:36:03.134Z,39.13
2023-05-17T08:38:30.381Z,37.62
2023-05-17T08:40:59.689Z,38.63
2023-05-17T08:43:28.232Z,39.18
2023-05-17T08:45:58.251Z,37.50
2023-05-17T08:48:27.472Z,38.24
2023-05-17T08:50:57.987Z,38.07
2023-05-17T08:53:28.724Z,38.28
2023-05-17T08:56:01.430Z,39.43
2023-05-17T08:58:52.336Z,39.88
2023-05-17T09:01:26.487Z,37.23
2023-05-17T09:03:54.839Z,37.51
2023-05-17T09:06:24.466Z,36.64
2023-05-17T09:08:55.857Z,38.96
2023-05-17T09:11:33.054Z,36.86
2023-05-17T09:14:04.747Z,37.58
2023-05-17T09:16:37.725Z,36.26
2023-05-17T09:19:07.572Z,34.54
2023-05-17T09:21:37.530Z,36.05
2023-05-17T09:24:08.331Z,34.49
2023-05-17T09:26:45.470Z,34.60
2023-05-17T09:29:16.265Z,34.52
2023-05-17T09:31:47.532Z,36.90
2023-05-17T09:34:24.368Z,34.83
2023-05-17T09:36:52.144Z,34.66
2023-05-17T09:39:19.822Z,32.05
2023-05-17T09:41:49.865Z,33.15
2023-05-17T09:44:20.204Z,34.14
2023-05-17T09:46:48.925Z,33.84
2023-05-17T09:49:20.982Z,33.46
2023-05-17T09:51:50.098Z,31.47
2023-05-17T09:54:19.461Z,31.25
2023-05-17T09:56:55.683Z,34.59
2023-05-17T09:59:25.833Z,30.98
2023-05-17T10:01:54.384Z,31.66
2023-05-17T10:04:25.690Z,29.48
2023-05-17T10:06:54.988Z,32.52
2023-05-17T10:09:23.530Z,34.00
2023-05-17T10:11:56.516Z,31.20
2023-05-17T10:14:34.974Z,30.89
2023-05-17T10:17:03.451Z,32.24
2023-05-17T10:19:32.941Z,31.83
2023-05-17T10:24:39.556Z,29.75
2023-05-17T10:27:14.337Z,30.15
2023-05-17T10:29:43.471Z,29.98
2023-05-17T10:32:13.585Z,29.67
2023-05-17T10:34:42.340Z,30.00
2023-05-17T10:37:16.788Z,29.83
2023-05-17T10:39:46.762Z,29.65
2023-05-17T10:42:16.340Z,28.32
2023-05-17T10:44:43.726Z,31.12
2023-05-17T10:47:14.555Z,26.91
2023-05-17T10:49:47.975Z,28.45
2023-05-17T10:52:23.749Z,30.47
2023-05-17T10:54:51.790Z,28.79
2023-05-17T10:57:50.708Z,28.99
2023-05-17T11:00:27.860Z,28.22
2023-05-17T11:03:19.709Z,28.84
2023-05-17T11:06:25.384Z,28.76
2023-05-17T11:13:29.583Z,27.01
2023-05-17T11:16:17.381Z,30.24
2023-05-17T11:18:54.843Z,29.75
2023-05-17T11:21:23.145Z,29.39
2023-05-17T11:23:58.331Z,29.83
2023-05-17T11:26:38.114Z,28.51
2023-05-17T11:29:10.879Z,26.95
2023-05-17T11:31:45.425Z,30.56
2023-05-17T11:34:13.203Z,26.74
2023-05-17T11:36:55.823Z,26.17
2023-05-17T11:39:25.340Z,28.50
2023-05-17T11:41:55.944Z,27.96
2023-05-17T11:44:34.766Z,28.46
2023-05-17T11:47:11.613Z,25.58
2023-05-17T11:49:40.897Z,27.12
2023-05-17T11:52:08.788Z,27.78
2023-05-17T11:54:40.344Z,29.03
2023-05-17T11:57:08.680Z,27.23
2023-05-17T11:59:40.042Z,27.02
2023-05-17T12:02:08.665Z,27.16
2023-05-17T12:04:38.780Z,27.24
2023-05-17T12:07:10.542Z,27.22
2023-05-17T12:09:45.041Z,26.09
2023-05-17T12:12:21.838Z,27.98
2023-05-17T12:14:50.754Z,27.42
2023-05-17T12:17:33.292Z,27.32
2023-05-17T12:20:11.033Z,26.68
2023-05-17T12:22:57.257Z,26.91
2023-05-17T12:25:27.640Z,25.66
2023-05-17T12:28:22.491Z,27.42
2023-05-17T12:30:55.800Z,26.48
2023-05-17T12:33:23.382Z,26.08
2023-05-17T12:35:50.754Z,25.05
2023-05-17T12:38:19.707Z,25.63
2023-05-17T12:40:47.160Z,25.65
2023-05-17T12:43:14.401Z,25.09
2023-05-17T12:45:44.657Z,26.64
2023-05-17T12:48:11.921Z,27.26
2023-05-17T12:50:44.374Z,26.28
2023-05-17T12:53:15.363Z,26.17
2023-05-17T12:55:42.936Z,27.21
2023-05-17T12:58:10.032Z,28.54
2023-05-17T13:00:37.255Z,25.27
2023-05-17T13:03:11.609Z,28.17
2023-05-17T13:05:41.259Z,25.92
2023-05-17T13:08:24.631Z,25.64
2023-05-17T13:10:51.766Z,26.74
2023-05-17T13:13:21.076Z,24.83
2023-05-17T13:15:48.438Z,25.52
2023-05-17T13:18:16.259Z,26.39
2023-05-17T13:20:44.009Z,27.00
2023-05-17T13:23:11.199Z,27.01
2023-05-17T13:25:38.329Z,28.74
2023-05-17T13:28:05.690Z,27.10
2023-05-17T13:30:35.152Z,25.35
2023-05-17T13:33:02.373Z,24.51
2023-05-17T13:35:31.898Z,30.23
2023-05-17T13:37:58.998Z,27.26
2023-05-17T13:40:26.331Z,26.28
2023-05-17T13:42:53.649Z,26.13
2023-05-17T13:45:23.209Z,27.50
2023-05-17T13:47:50.914Z,25.93
2023-05-17T13:50:28.239Z,26.24
2023-05-17T13:52:58.899Z,26.44
2023-05-17T13:55:26.108Z,29.55
2023-05-17T13:57:53.977Z,26.60
2023-05-17T14:00:21.863Z,28.98
2023-05-17T14:02:49.798Z,27.99
2023-05-17T14:05:18.027Z,25.68
2023-05-17T14:07:46.117Z,28.01
2023-05-17T14:10:13.458Z,25.71
2023-05-17T14:12:42.070Z,25.39
2023-05-17T14:17:38.572Z,25.09
2023-05-17T14:20:07.414Z,26.44
2023-05-17T14:22:34.592Z,25.18
2023-05-17T14:25:03.334Z,25.76
2023-05-17T14:27:30.564Z,25.55
2023-05-17T14:30:04.358Z,26.35
2023-05-17T14:32:31.570Z,26.37
2023-05-17T14:34:58.915Z,25.39
2023-05-17T14:37:26.585Z,27.00
2023-05-17T14:40:07.031Z,26.21
2023-05-17T14:42:34.376Z,28.36
2023-05-17T14:45:01.724Z,27.46
2023-05-17T14:47:28.993Z,30.62
2023-05-17T14:49:56.415Z,27.15
2023-05-17T14:52:23.709Z,26.39
2023-05-17T14:54:50.824Z,25.65
2023-05-17T14:57:18.690Z,26.49
2023-05-17T14:59:45.881Z,25.77
2023-05-17T15:02:13.354Z,26.33
2023-05-17T15:04:40.626Z,25.84
2023-05-17T15:07:11.630Z,28.81
2023-05-17T15:09:41.940Z,31.54
2023-05-17T15:12:14.221Z,30.53
2023-05-17T15:14:41.437Z,31.26
2023-05-17T15:17:09.885Z,30.37
2023-05-17T15:19:37.333Z,29.74
2023-05-17T15:22:07.649Z,29.60
2023-05-17T15:24:34.849Z,27.26
2023-05-17T15:27:02.028Z,24.80
2023-05-17T15:29:30.953Z,28.22
2023-05-17T15:31:59.254Z,30.63
2023-05-17T15:34:26.969Z,30.41
2023-05-17T15:36:56.504Z,25.02
2023-05-17T15:39:24.020Z,27.00
2023-05-17T15:41:51.182Z,28.96
2023-05-17T15:44:19.224Z,25.49
2023-05-17T15:46:46.928Z,24.54
2023-05-17T15:49:14.101Z,27.05
2023-05-17T15:51:41.254Z,28.06
2023-05-17T15:54:08.640Z,29.19
2023-05-17T15:56:38.216Z,30.37
2023-05-17T15:59:07.162Z,24.77
2023-05-17T16:01:34.508Z,25.09
2023-05-17T16:04:01.695Z,27.82
2023-05-17T16:06:34.778Z,26.52
2023-05-17T16:09:03.076Z,31.25
2023-05-17T16:11:30.367Z,26.34
2023-05-17T16:13:57.605Z,29.62
2023-05-17T16:16:24.796Z,30.40
2023-05-17T16:18:52.313Z,27.24
2023-05-17T16:21:22.542Z,30.29
2023-05-17T16:23:49.762Z,27.47
2023-05-17T16:26:16.972Z,30.39
2023-05-17T16:28:44.600Z,27.35
2023-05-17T16:31:11.867Z,30.09
2023-05-17T16:33:40.110Z,27.07
2023-05-17T16:36:08.845Z,26.92
2023-05-17T16:38:36.287Z,25.78
2023-05-17T16:41:03.598Z,28.23
2023-05-17T16:43:31.374Z,29.90
2023-05-17T16:45:58.546Z,27.82
2023-05-17T16:48:25.766Z,27.24
2023-05-17T16:50:53.027Z,29.71
2023-05-17T16:53:20.402Z,28.37
2023-05-17T16:55:47.653Z,27.82
2023-05-17T16:58:15.141Z,31.06
2023-05-17T17:00:42.435Z,31.54
2023-05-17T17:03:10.128Z,28.92
2023-05-17T17:05:37.519Z,29.61
2023-05-17T17:08:04.978Z,29.93
2023-05-17T17:10:32.316Z,30.15
2023-05-17T17:12:59.477Z,29.85
2023-05-17T17:15:26.750Z,29.70
2023-05-17T17:17:53.861Z,29.96
2023-05-17T17:20:21.629Z,31.51
2023-05-17T17:22:48.758Z,31.45
2023-05-17T17:25:16.142Z,30.83
2023-05-17T17:27:43.908Z,31.81
2023-05-17T17:30:12.337Z,30.10
2023-05-17T17:32:39.615Z,29.89
2023-05-17T17:35:07.926Z,30.55
2023-05-17T17:37:35.041Z,30.22
2023-05-17T17:40:03.189Z,30.88
2023-05-17T17:42:32.094Z,30.97
2023-05-17T17:44:59.485Z,31.81
2023-05-17T17:47:26.617Z,30.33
2023-05-17T17:49:54.155Z,31.26
2023-05-17T17:52:21.254Z,31.62
2023-05-17T17:54:48.329Z,32.19
2023-05-17T17:57:15.540Z,31.26
2023-05-17T17:59:42.686Z,31.07
2023-05-17T18:02:09.975Z,31.49
2023-05-17T18:04:37.115Z,31.44
2023-05-17T18:07:04.353Z,31.17
2023-05-17T18:09:31.594Z,31.62
2023-05-17T18:11:59.983Z,31.42
2023-05-17T18:14:27.098Z,31.04
2023-05-17T18:16:54.288Z,32.41
2023-05-17T18:19:21.432Z,31.46
2023-05-17T18:21:51.126Z,32.11
2023-05-17T18:24:18.374Z,31.97
2023-05-17T18:26:45.499Z,32.46
2023-05-17T18:29:12.598Z,33.31
2023-05-17T18:31:39.755Z,33.56
2023-05-17T18:34:06.937Z,32.02
2023-05-17T18:36:34.247Z,33.19
2023-05-17T18:39:01.480Z,33.28
2023-05-17T18:41:28.697Z,33.10
2023-05-17T18:44:01.504Z,33.77
2023-05-17T18:46:32.105Z,34.81
2023-05-17T18:48:59.478Z,34.22
2023-05-17T18:51:28.947Z,35.21
2023-05-17T18:53:56.144Z,34.19
2023-05-17T18:56:25.047Z,33.71
2023-05-17T18:58:55.430Z,33.36
2023-05-17T19:01:22.700Z,34.10
2023-05-17T19:03:51.691Z,34.16
2023-05-17T19:06:19.709Z,34.91
2023-05-17T19:08:49.423Z,35.70
2023-05-17T19:11:17.716Z,34.83
2023-05-17T19:13:45.424Z,34.84
2023-05-17T19:16:12.763Z,35.01
2023-05-17T19:18:39.924Z,36.35
2023-05-17T19:21:07.386Z,36.11
2023-05-17T19:23:36.030Z,36.75
2023-05-17T19:26:03.381Z,36.75
2023-05-17T19:28:35.612Z,36.88
2023-05-17T19:31:04.138Z,36.75
2023-05-17T19:33:32.018Z,37.36
2023-05-17T19:35:59.156Z,37.18
2023-05-17T19:38:26.269Z,37.36
2023-05-17T19:40:53.454Z,36.59
2023-05-17T19:43:20.623Z,36.89
2023-05-17T19:45:47.816Z,36.93
2023-05-17T19:48:14.941Z,37.96
2023-05-17T19:50:42.188Z,38.62
2023-05-17T19:53:09.309Z,37.94
2023-05-17T19:55:36.653Z,38.55
2023-05-17T19:58:04.057Z,40.06
2023-05-17T20:00:32.654Z,41.90
2023-05-17T20:02:59.877Z,39.78
2023-05-17T20:05:27.258Z,39.50
2023-05-17T20:07:55.221Z,40.53
2023-05-17T20:10:22.677Z,43.25
2023-05-17T20:12:52.177Z,40.41
2023-05-17T20:15:19.507Z,40.09
2023-05-17T20:17:46.876Z,41.39
2023-05-17T20:20:14.376Z,42.19
2023-05-17T20:22:42.938Z,44.07
2023-05-17T20:25:11.677Z,45.01
2023-05-17T20:27:38.918Z,44.21
2023-05-17T20:30:08.262Z,44.89
2023-05-17T20:32:35.722Z,44.08
2023-05-17T20:35:02.956Z,44.13
2023-05-17T20:37:30.286Z,42.94
2023-05-17T20:39:59.813Z,43.95
2023-05-17T20:42:28.503Z,45.73
2023-05-17T20:44:58.787Z,44.20
2023-05-17T20:47:26.136Z,45.87
2023-05-17T20:49:53.279Z,48.63
2023-05-17T20:52:35.138Z,49.59
2023-05-17T20:55:09.408Z,49.47
2023-05-17T20:57:36.531Z,50.10
2023-05-17T21:00:05.732Z,47.55
2023-05-17T21:02:32.936Z,47.86
2023-05-17T21:05:00.808Z,47.32
2023-05-17T21:07:30.068Z,46.40
2023-05-17T21:09:57.540Z,48.31
2023-05-17T21:12:24.640Z,46.00
2023-05-17T21:15:03.657Z,46.09
2023-05-17T21:17:31.690Z,45.66
2023-05-17T21:19:58.945Z,46.84
2023-05-17T21:22:26.130Z,46.73
2023-05-17T21:24:53.299Z,46.43
2023-05-17T21:27:20.597Z,48.04
2023-05-17T21:29:47.726Z,46.20
2023-05-17T21:32:14.955Z,46.63
2023-05-17T21:34:43.295Z,45.51
2023-05-17T21:37:10.628Z,46.03
2023-05-17T21:39:37.731Z,46.15
2023-05-17T21:42:05.165Z,45.76
2023-05-17T21:44:32.298Z,45.25
2023-05-17T21:46:59.704Z,44.44
2023-05-17T21:49:28.411Z,46.28
2023-05-17T21:51:55.842Z,44.25
2023-05-17T21:54:24.839Z,45.69
2023-05-17T21:56:52.992Z,44.69
2023-05-17T21:59:20.135Z,43.19
2023-05-17T22:01:47.362Z,44.33
2023-05-17T22:04:14.560Z,44.00
2023-05-17T22:06:41.675Z,44.33
2023-05-17T22:09:09.419Z,44.71
2023-05-17T22:11:38.531Z,44.71
2023-05-17T22:14:07.372Z,43.93
2023-05-17T22:16:36.013Z,45.08
2023-05-17T22:19:03.913Z,44.49
2023-05-17T22:21:32.236Z,45.96
2023-05-17T22:23:59.780Z,45.86
2023-05-17T22:26:27.778Z,46.83
2023-05-17T22:28:55.940Z,45.04
2023-05-17T22:31:23.124Z,46.30
2023-05-17T22:33:52.029Z,46.57
2023-05-17T22:36:19.472Z,46.76
2023-05-17T22:38:46.655Z,46.15
2023-05-17T22:41:13.929Z,46.37
2023-05-17T22:43:41.649Z,45.82
2023-05-17T22:46:11.083Z,45.99
2023-05-17T22:48:38.507Z,45.98
2023-05-17T22:51:05.890Z,45.35
2023-05-17T22:53:33.040Z,45.87
2023-05-17T22:56:00.165Z,46.60
2023-05-17T22:58:27.337Z,46.19
2023-05-17T23:00:54.534Z,45.29
2023-05-17T23:03:21.682Z,45.38
2023-05-17T23:05:49.109Z,46.67
2023-05-17T23:08:16.276Z,47.05
2023-05-17T23:10:46.345Z,46.84
2023-05-17T23:13:13.906Z,47.03
2023-05-17T23:15:46.102Z,47.19
2023-05-17T23:18:13.349Z,47.14
2023-05-17T23:20:42.974Z,47.23
2023-05-17T23:23:10.294Z,48.25
2023-05-17T23:25:37.386Z,47.75
2023-05-17T23:28:05.554Z,47.51
2023-05-17T23:30:33.446Z,48.51
2023-05-17T23:33:02.939Z,50.10
2023-05-17T23:35:30.369Z,49.49
2023-05-17T23:37:57.795Z,49.99
2023-05-17T23:40:24.942Z,51.50
2023-05-17T23:42:52.170Z,50.97
2023-05-17T23:45:19.501Z,50.30
2023-05-17T23:47:47.523Z,50.75
2023-05-17T23:50:14.869Z,50.34
2023-05-17T23:52:43.434Z,50.82
2023-05-17T23:55:12.173Z,51.34
2023-05-17T23:57:40.062Z,50.35
